createdAt,value
2023-04-15T00:03:42.166Z,61.34
2023-04-15T00:08:46.568Z,61.96
2023-04-15T00:13:49.416Z,61.97
2023-04-15T00:18:52.456Z,62.08
2023-04-15T00:23:56.936Z,61.74
2023-04-15T00:28:59.896Z,61.85
2023-04-15T00:34:03.670Z,62.20
2023-04-15T00:39:08.197Z,62.44
2023-04-15T00:44:11.499Z,62.60
2023-04-15T00:49:14.675Z,62.60
2023-04-15T00:54:18.925Z,62.84
2023-04-15T00:59:22.629Z,63.06
2023-04-15T01:04:26.679Z,63.31
2023-04-15T01:09:30.999Z,63.72
2023-04-15T01:14:35.250Z,63.77
2023-04-15T01:19:38.208Z,63.94
2023-04-15T01:24:44.089Z,64.32
2023-04-15T01:29:48.579Z,64.31
2023-04-15T01:34:51.458Z,64.61
2023-04-15T01:39:54.339Z,64.83
2023-04-15T01:45:00.199Z,65.08
2023-04-15T01:50:02.994Z,64.93
2023-04-15T01:55:08.037Z,65.07
2023-04-15T02:00:13.168Z,65.03
2023-04-15T02:05:18.720Z,65.01
2023-04-15T02:10:23.563Z,65.49
2023-04-15T02:15:27.825Z,65.69
2023-04-15T02:20:32.178Z,65.94
2023-04-15T02:25:35.046Z,65.86
2023-04-15T02:30:42.210Z,65.93
2023-04-15T02:35:45.520Z,66.06
2023-04-15T02:40:49.764Z,66.27
2023-04-15T02:45:54.329Z,66.14
2023-04-15T02:51:12.480Z,66.28
2023-04-15T02:56:17.126Z,66.43
2023-04-15T03:01:21.535Z,66.74
2023-04-15T03:06:24.763Z,66.77
2023-04-15T03:11:28.202Z,67.52
2023-04-15T03:16:32.448Z,67.57
2023-04-15T03:21:35.459Z,67.55
2023-04-15T03:26:38.933Z,67.60
2023-04-15T03:31:49.304Z,68.76
2023-04-15T03:36:52.920Z,68.60
2023-04-15T03:41:56.453Z,68.60
2023-04-15T03:47:00.726Z,68.75
2023-04-15T03:52:03.686Z,68.64
2023-04-15T03:57:06.584Z,68.47
2023-04-15T04:02:10.843Z,68.53
2023-04-15T04:07:16.960Z,68.22
2023-04-15T04:12:19.814Z,68.58
2023-04-15T04:17:24.043Z,68.92
2023-04-15T04:22:26.869Z,68.90
2023-04-15T04:27:29.740Z,69.06
2023-04-15T04:32:34.071Z,69.20
2023-04-15T04:37:36.969Z,69.14
2023-04-15T04:42:40.258Z,69.53
2023-04-15T04:47:44.581Z,69.28
2023-04-15T04:52:47.648Z,68.93
2023-04-15T04:57:50.647Z,68.99
2023-04-15T05:02:54.931Z,69.46
2023-04-15T05:07:58.977Z,69.22
2023-04-15T05:13:02.499Z,69.49
2023-04-15T05:18:06.723Z,70.60
2023-04-15T05:23:09.665Z,70.48
2023-04-15T05:28:12.614Z,69.94
2023-04-15T05:33:17.635Z,69.39
2023-04-15T05:38:20.522Z,68.70
2023-04-15T05:43:23.380Z,68.47
2023-04-15T05:48:27.587Z,67.35
2023-04-15T05:53:30.421Z,66.14
2023-04-15T05:58:33.325Z,65.92
2023-04-15T06:03:37.958Z,66.23
2023-04-15T06:08:40.914Z,66.28
2023-04-15T06:13:43.866Z,66.88
2023-04-15T06:18:48.102Z,66.90
2023-04-15T06:23:51.027Z,67.26
2023-04-15T06:28:54.038Z,67.83
2023-04-15T06:33:58.281Z,67.98
2023-04-15T06:39:01.498Z,68.06
2023-04-15T06:44:04.869Z,69.05
2023-04-15T06:49:09.140Z,70.79
2023-04-15T06:54:12.071Z,71.96
2023-04-15T06:59:15.351Z,73.79
2023-04-15T07:04:20.399Z,75.30
2023-04-15T07:09:23.620Z,75.93
2023-04-15T07:14:26.647Z,77.02
2023-04-15T07:19:31.125Z,77.67
2023-04-15T07:24:34.111Z,78.40
2023-04-15T07:29:37.060Z,78.62
2023-04-15T07:34:41.623Z,79.14
2023-04-15T07:39:44.561Z,79.88
2023-04-15T07:44:47.508Z,80.24
2023-04-15T07:49:52.429Z,80.97
2023-04-15T07:54:55.745Z,81.58
2023-04-15T07:59:58.660Z,82.17
2023-04-15T08:05:03.285Z,81.94
2023-04-15T08:10:07.459Z,82.67
2023-04-15T08:15:11.206Z,83.12
2023-04-15T08:20:18.175Z,83.32
2023-04-15T08:25:21.302Z,83.38
2023-04-15T08:30:24.575Z,83.05
2023-04-15T08:35:28.911Z,83.51
2023-04-15T08:40:41.819Z,83.71
2023-04-15T08:45:46.788Z,83.83
2023-04-15T08:50:52.201Z,84.65
2023-04-15T08:55:58.570Z,83.21
2023-04-15T09:01:02.190Z,83.98
2023-04-15T09:06:07.535Z,83.67
2023-04-15T09:11:10.599Z,84.06
2023-04-15T09:16:15.786Z,84.81
2023-04-15T09:21:20.420Z,84.82
2023-04-15T09:26:32.147Z,84.74
2023-04-15T09:31:35.042Z,84.24
2023-04-15T09:36:58.308Z,84.52
2023-04-15T09:42:09.092Z,84.62
2023-04-15T09:47:28.482Z,84.80
2023-04-15T09:52:32.865Z,84.92
2023-04-15T09:57:37.298Z,85.10
2023-04-15T10:02:41.905Z,85.45
2023-04-15T10:07:48.290Z,85.63
2023-04-15T10:12:53.323Z,85.33
2023-04-15T10:17:57.527Z,85.52
2023-04-15T10:23:02.956Z,85.53
2023-04-15T10:28:07.618Z,85.74
2023-04-15T10:33:11.317Z,85.83
2023-04-15T10:38:35.061Z,85.57
2023-04-15T10:43:38.584Z,85.71
2023-04-15T10:48:48.800Z,85.72
2023-04-15T10:53:57.728Z,85.53
2023-04-15T10:59:02.086Z,85.95
2023-04-15T11:04:05.245Z,86.10
2023-04-15T11:09:09.723Z,86.50
2023-04-15T11:14:16.644Z,86.43
2023-04-15T11:19:19.665Z,86.04
2023-04-15T11:24:27.438Z,86.33
2023-04-15T11:29:32.171Z,86.42
2023-04-15T11:34:36.114Z,86.52
2023-04-15T11:39:40.615Z,86.69
2023-04-15T11:44:43.487Z,86.18
2023-04-15T11:49:46.382Z,86.37
2023-04-15T11:54:50.631Z,86.76
2023-04-15T11:59:56.203Z,86.28
2023-04-15T12:05:05.288Z,86.41
2023-04-15T12:10:09.677Z,86.18
2023-04-15T12:15:12.497Z,86.46
2023-04-15T12:20:16.861Z,86.66
2023-04-15T12:25:21.111Z,86.15
2023-04-15T12:30:24.105Z,86.31
2023-04-15T12:35:26.898Z,85.88
2023-04-15T12:40:31.204Z,85.96
2023-04-15T12:45:34.177Z,86.01
2023-04-15T12:50:37.243Z,86.04
2023-04-15T12:55:41.724Z,85.86
2023-04-15T13:00:44.819Z,85.87
2023-04-15T13:05:47.741Z,85.98
2023-04-15T13:10:52.008Z,85.70
2023-04-15T13:15:54.992Z,85.90
2023-04-15T13:20:57.948Z,86.04
2023-04-15T13:26:02.241Z,86.05
2023-04-15T13:31:06.050Z,85.80
2023-04-15T13:36:09.578Z,85.68
2023-04-15T13:41:13.796Z,85.81
2023-04-15T13:46:16.822Z,85.67
2023-04-15T13:51:19.712Z,85.60
2023-04-15T13:56:23.925Z,85.48
2023-04-15T14:01:27.217Z,85.43
2023-04-15T14:06:31.618Z,85.27
2023-04-15T14:11:36.755Z,85.52
2023-04-15T14:16:40.150Z,85.77
2023-04-15T14:21:43.047Z,85.70
2023-04-15T14:26:47.241Z,85.85
2023-04-15T14:32:04.268Z,85.90
2023-04-15T14:37:12.701Z,86.15
2023-04-15T14:42:16.963Z,86.09
2023-04-15T14:47:19.942Z,86.17
2023-04-15T14:52:22.840Z,86.17
2023-04-15T14:57:27.026Z,86.38
2023-04-15T15:07:36.106Z,86.52
2023-04-15T15:12:40.306Z,86.49
2023-04-15T15:17:43.288Z,86.37
2023-04-15T15:22:46.272Z,86.49
2023-04-15T15:27:50.814Z,86.60
2023-04-15T15:32:53.857Z,86.75
2023-04-15T15:37:56.715Z,86.78
2023-04-15T15:43:00.935Z,86.79
2023-04-15T15:48:03.950Z,86.86
2023-04-15T15:53:06.831Z,86.69
2023-04-15T15:58:11.010Z,86.82
2023-04-15T16:03:14.182Z,87.07
2023-04-15T16:08:17.114Z,86.58
2023-04-15T16:13:21.354Z,86.99
2023-04-15T16:18:24.161Z,87.28
2023-04-15T16:23:27.096Z,87.58
2023-04-15T16:28:31.324Z,86.48
2023-04-15T16:33:34.172Z,86.59
2023-04-15T16:38:36.962Z,86.23
2023-04-15T16:43:41.206Z,85.90
2023-04-15T16:48:44.026Z,86.09
2023-04-15T16:53:46.927Z,86.38
2023-04-15T16:58:51.072Z,86.33
2023-04-15T17:03:56.058Z,86.20
2023-04-15T17:08:59.054Z,86.37
2023-04-15T17:14:03.578Z,86.10
2023-04-15T17:19:06.589Z,85.77
2023-04-15T17:24:09.427Z,85.63
2023-04-15T17:29:13.646Z,85.83
2023-04-15T17:34:16.510Z,85.92
2023-04-15T17:39:19.417Z,85.66
2023-04-15T17:44:25.208Z,85.53
2023-04-15T17:49:28.456Z,85.43
2023-04-15T17:54:31.264Z,86.06
2023-04-15T17:59:35.456Z,86.20
2023-04-15T18:04:40.521Z,86.60
2023-04-15T18:09:44.295Z,86.16
2023-04-15T18:14:48.495Z,86.53
2023-04-15T18:19:51.601Z,86.64
2023-04-15T18:24:54.593Z,86.30
2023-04-15T18:29:58.857Z,86.60
2023-04-15T18:35:02.008Z,86.33
2023-04-15T18:40:05.731Z,87.02
2023-04-15T18:45:10.874Z,86.74
2023-04-15T18:50:13.698Z,86.85
2023-04-15T18:55:19.083Z,87.48
2023-04-15T19:00:23.499Z,86.76
2023-04-15T19:05:27.071Z,87.46
2023-04-15T19:10:29.947Z,86.70
2023-04-15T19:15:34.149Z,87.30
2023-04-15T19:20:39.197Z,86.72
2023-04-15T19:25:42.839Z,86.30
2023-04-15T19:30:47.199Z,86.30
2023-04-15T19:35:50.366Z,86.18
2023-04-15T19:40:53.250Z,86.34
2023-04-15T19:45:57.511Z,86.24
2023-04-15T19:51:00.608Z,86.46
2023-04-15T19:56:03.550Z,86.44
2023-04-15T20:01:07.949Z,86.75
2023-04-15T20:06:10.914Z,86.79
2023-04-15T20:11:15.189Z,87.02
2023-04-15T20:16:19.536Z,86.60
2023-04-15T20:21:22.834Z,87.14
2023-04-15T20:26:25.865Z,87.52
2023-04-15T20:31:31.213Z,86.73
2023-04-15T20:36:34.322Z,86.82
2023-04-15T20:41:37.158Z,87.22
2023-04-15T20:46:41.543Z,86.28
2023-04-15T20:51:44.453Z,86.47
2023-04-15T20:56:47.283Z,86.32
2023-04-15T21:01:52.298Z,86.53
2023-04-15T21:06:55.489Z,86.75
2023-04-15T21:12:01.750Z,86.86
2023-04-15T21:22:43.490Z,86.06
2023-04-15T21:27:46.167Z,86.09
2023-04-15T21:32:49.059Z,85.94
2023-04-15T21:37:53.284Z,86.16
2023-04-15T21:42:56.157Z,86.13
2023-04-15T21:48:07.260Z,85.87
2023-04-15T21:53:13.027Z,86.01
2023-04-15T21:58:15.952Z,85.86
2023-04-15T22:03:19.310Z,85.92
2023-04-15T22:08:23.772Z,85.77
2023-04-15T22:13:26.885Z,85.69
2023-04-15T22:18:29.823Z,85.65
2023-04-15T22:23:34.004Z,85.73
2023-04-15T22:28:36.910Z,85.71
2023-04-15T22:33:39.879Z,85.50
2023-04-15T22:38:44.091Z,85.69
2023-04-15T22:43:47.232Z,85.86
2023-04-15T22:48:50.159Z,85.74
2023-04-15T22:53:54.703Z,85.86
2023-04-15T22:58:57.536Z,85.66
2023-04-15T23:04:05.992Z,85.60
2023-04-15T23:09:24.769Z,85.71
2023-04-15T23:14:28.070Z,85.81
2023-04-15T23:19:30.923Z,85.64
2023-04-15T23:24:35.169Z,85.49
2023-04-15T23:29:37.998Z,85.64
2023-04-15T23:34:40.918Z,85.42
2023-04-15T23:39:45.170Z,85.50
2023-04-15T23:44:48.027Z,85.38
2023-04-15T23:49:50.860Z,85.73
2023-04-15T23:54:55.104Z,86.01
2023-04-15T23:59:57.925Z,85.28
